»·PEaware :: AFR243 LIRF-LFMN

AFR243 :: LIRF-LFMN

FLIGHT INFORMATION

Flight Status: Arrived
Operator:
Air France
More flights by this operator :: More flights under this callsign
Pilot: Cullen C. (7783)
Aircraft: BOEING 737-300
(B733)
More flights by this aircraft type
Origin: LIRF Fiumicino
Italy
Destination: LFMN Nice/Cote d'Azur
France
More flights between these airports :: More routes between these airports
Route: NEMBO T313 ELB M616 DOBIM UM616 AKUTI/N0377F180 R16 KERIT KERI6R
File this flight plan on PilotEdge
Remarks:
Altitude:
(Current/Filed)
24,000ft
Speed:
(Current/Filed)
408kts
Departed: 13-Aug-17 06:30 PM
Arrived: 13-Aug-17 07:20 PM
Distance/Time
Traveled:
248nm/0:50
Distance/Time
To Go:
Arrived

Flight Plot

Page will automatically refresh every two minutes.

Flight plan parsing failed; only flown route is shown


Map Options




Map Legend


Flown Route
Filed Route
Departure Airport
Arrival Airport
Navaid (VOR, NDB)
Fix

Horizontal Profiles

Position Reports

Time Latitude Longitude Heading Altitude Ground
Speed
13-Aug-17 18:20 41.797572 12.255060 114 12ft 0kts
13-Aug-17 18:21 41.797572 12.255060 114 12ft 0kts
13-Aug-17 18:22 41.797572 12.255060 114 12ft 0kts
13-Aug-17 18:23 41.797572 12.255060 114 12ft 0kts
13-Aug-17 18:24 41.797748 12.254552 104 12ft 1kts
13-Aug-17 18:25 41.797585 12.254203 21 12ft 0kts
13-Aug-17 18:26 41.797585 12.254203 21 12ft 0kts
13-Aug-17 18:27 41.798805 12.254982 24 12ft 12kts
13-Aug-17 18:28 41.799905 12.258934 24 12ft 16kts
13-Aug-17 18:29 41.804061 12.263203 69 12ft 23kts
13-Aug-17 18:30 41.806437 12.271815 69 12ft 24kts
13-Aug-17 18:31 41.811552 12.274059 64 12ft 21kts
13-Aug-17 18:32 41.813601 12.275045 343 12ft 0kts
13-Aug-17 18:33 41.839899 12.263896 342 458ft 189kts
13-Aug-17 18:34 41.869666 12.202561 288 3402ft 211kts
13-Aug-17 18:35 41.882969 12.115128 288 5622ft 267kts
13-Aug-17 18:36 41.909319 12.020468 293 8734ft 278kts
13-Aug-17 18:37 41.940157 11.920699 294 10841ft 320kts
13-Aug-17 18:38 41.975352 11.808149 294 13647ft 333kts
13-Aug-17 18:39 42.011609 11.691910 293 16230ft 344kts
13-Aug-17 18:40 42.049049 11.571361 293 18584ft 354kts
13-Aug-17 18:41 42.087351 11.447465 293 20710ft 364kts
13-Aug-17 18:42 42.124651 11.326851 292 22508ft 375kts
13-Aug-17 18:43 42.164908 11.195393 292 24085ft 383kts
13-Aug-17 18:44 42.204523 11.065399 292 24123ft 373kts
13-Aug-17 18:45 42.243881 10.935606 291 24129ft 375kts
13-Aug-17 18:46 42.283440 10.804498 291 24129ft 377kts
13-Aug-17 18:47 42.361947 10.714830 327 24136ft 383kts
13-Aug-17 18:48 42.451655 10.638691 325 24128ft 382kts
13-Aug-17 18:49 42.541154 10.561164 325 24129ft 382kts
13-Aug-17 18:50 42.630521 10.483433 325 24129ft 382kts
13-Aug-17 18:51 42.719161 10.406020 324 24129ft 381kts
13-Aug-17 18:52 42.769937 10.285169 293 24135ft 375kts
13-Aug-17 18:53 42.814067 10.156400 294 24129ft 375kts
13-Aug-17 18:54 42.858401 10.028392 294 24129ft 375kts
13-Aug-17 18:55 42.902811 9.899648 294 24128ft 375kts
13-Aug-17 18:56 42.947190 9.770384 294 24129ft 377kts
13-Aug-17 18:57 42.991359 9.640847 294 24129ft 377kts
13-Aug-17 18:58 43.035547 9.510973 294 24128ft 378kts
13-Aug-17 18:59 43.079802 9.380455 294 24129ft 378kts
13-Aug-17 19:00 43.120815 9.259252 293 24130ft 378kts
13-Aug-17 19:01 43.164149 9.130508 293 24129ft 378kts
13-Aug-17 19:02 43.207962 8.999500 292 24005ft 377kts
13-Aug-17 19:03 43.250852 8.870077 292 21644ft 370kts
13-Aug-17 19:04 43.293188 8.742289 292 19579ft 369kts
13-Aug-17 19:05 43.334554 8.616961 291 17521ft 356kts
13-Aug-17 19:06 43.333889 8.489051 262 16814ft 348kts
13-Aug-17 19:07 43.323006 8.360025 262 16416ft 348kts
13-Aug-17 19:08 43.312288 8.233203 261 16025ft 347kts
13-Aug-17 19:09 43.304074 8.104953 279 15617ft 342kts
13-Aug-17 19:10 43.347518 7.989979 298 13683ft 345kts
13-Aug-17 19:11 43.394021 7.877654 298 11782ft 332kts
13-Aug-17 19:12 43.427801 7.763213 284 9968ft 316kts
13-Aug-17 19:13 43.447682 7.658841 284 9492ft 264kts
13-Aug-17 19:14 43.466621 7.559456 284 7968ft 264kts
13-Aug-17 19:15 43.484826 7.463557 284 6558ft 255kts
13-Aug-17 19:16 43.502570 7.369634 285 5091ft 249kts
13-Aug-17 19:17 43.519523 7.279251 284 3789ft 241kts
13-Aug-17 19:18 43.514535 7.196014 242 2939ft 214kts
13-Aug-17 19:19 43.516942 7.130777 322 2480ft 194kts
13-Aug-17 19:20 43.568640 7.126489 5 2097ft 185kts
13-Aug-17 19:21 43.611289 7.156186 41 932ft 176kts
13-Aug-17 19:22 43.642012 7.195924 42 247ft 138kts
13-Aug-17 19:23 43.660351 7.218096 13 19ft 30kts
13-Aug-17 19:24 43.663603 7.214409 257 19ft 18kts
13-Aug-17 19:25 43.664287 7.213318 338 19ft 0kts
13-Aug-17 19:26 43.664287 7.213318 338 19ft 0kts

Navigation Log

Ident Type
Flight plan parsing failed, navigation log unavailable